createdAt,value
2023-04-13T00:00:54.089Z,2.80
2023-04-13T00:03:24.403Z,3.00
2023-04-13T00:05:54.001Z,3.00
2023-04-13T00:08:25.443Z,3.20
2023-04-13T00:10:57.730Z,3.00
2023-04-13T00:13:25.924Z,3.10
2023-04-13T00:15:56.100Z,2.80
2023-04-13T00:18:25.812Z,2.50
2023-04-13T00:20:54.626Z,2.80
2023-04-13T00:23:23.340Z,2.80
2023-04-13T00:28:24.671Z,2.80
2023-04-13T00:30:53.333Z,3.40
2023-04-13T00:33:22.121Z,3.40
2023-04-13T00:35:50.301Z,3.20
2023-04-13T00:38:18.408Z,3.30
2023-04-13T00:40:48.826Z,3.30
2023-04-13T00:43:18.556Z,3.50
2023-04-13T00:45:46.676Z,2.90
2023-04-13T00:48:21.677Z,3.80
2023-04-13T00:50:51.693Z,3.40
2023-04-13T00:53:20.374Z,3.90
2023-04-13T00:55:50.942Z,3.10
2023-04-13T00:58:21.622Z,3.70
2023-04-13T01:00:49.802Z,3.20
2023-04-13T01:03:20.281Z,3.80
2023-04-13T01:05:56.907Z,3.30
2023-04-13T01:08:31.451Z,3.90
2023-04-13T01:11:08.896Z,3.10
2023-04-13T01:13:42.610Z,3.50
2023-04-13T01:16:17.663Z,3.30
2023-04-13T01:18:47.237Z,3.40
2023-04-13T01:21:20.670Z,3.40
2023-04-13T01:27:07.364Z,4.00
2023-04-13T01:29:36.552Z,3.80
2023-04-13T01:32:05.666Z,3.40
2023-04-13T01:34:34.212Z,3.70
2023-04-13T01:37:04.954Z,3.90
2023-04-13T01:39:34.483Z,3.40
2023-04-13T01:42:14.364Z,3.10
2023-04-13T01:44:45.909Z,3.50
2023-04-13T01:47:16.662Z,3.10
2023-04-13T01:50:15.015Z,3.80
2023-04-13T01:52:55.666Z,3.60
2023-04-13T01:55:24.391Z,3.40
2023-04-13T01:57:58.068Z,3.20
2023-04-13T02:00:33.675Z,4.00
2023-04-13T02:03:08.729Z,3.40
2023-04-13T02:05:42.440Z,3.90
2023-04-13T02:08:11.013Z,3.20
2023-04-13T02:10:43.629Z,3.40
2023-04-13T02:13:13.729Z,3.50
2023-04-13T02:15:43.269Z,3.80
2023-04-13T02:18:13.800Z,3.50
2023-04-13T02:20:45.034Z,3.30
2023-04-13T02:25:48.240Z,3.70
2023-04-13T02:28:20.904Z,3.80
2023-04-13T02:31:00.087Z,3.60
2023-04-13T02:33:35.990Z,3.50
2023-04-13T02:36:04.972Z,3.70
2023-04-13T02:38:37.714Z,3.40
2023-04-13T02:41:23.276Z,4.20
2023-04-13T02:43:52.516Z,3.40
2023-04-13T02:46:23.926Z,3.00
2023-04-13T02:49:06.182Z,3.90
2023-04-13T02:51:40.385Z,3.30
2023-04-13T02:54:11.675Z,3.40
2023-04-13T02:56:44.619Z,3.00
2023-04-13T02:59:13.439Z,4.00
2023-04-13T03:01:45.872Z,3.80
2023-04-13T03:04:15.621Z,3.20
2023-04-13T03:06:46.352Z,3.70
2023-04-13T03:09:16.406Z,3.50
2023-04-13T03:11:53.229Z,3.20
2023-04-13T03:16:59.631Z,3.40
2023-04-13T03:19:39.053Z,3.80
2023-04-13T03:22:10.302Z,3.40
2023-04-13T03:24:44.513Z,3.70
2023-04-13T03:27:28.352Z,3.10
2023-04-13T03:29:56.835Z,3.10
2023-04-13T03:32:34.183Z,3.50
2023-04-13T03:35:03.326Z,3.30
2023-04-13T03:37:35.080Z,3.40
2023-04-13T03:40:10.882Z,3.40
2023-04-13T03:42:45.459Z,3.20
2023-04-13T03:45:13.848Z,4.00
2023-04-13T03:47:43.140Z,3.20
2023-04-13T03:50:11.923Z,3.20
2023-04-13T03:52:41.443Z,3.20
2023-04-13T03:55:10.590Z,3.30
2023-04-13T03:57:41.027Z,3.80
2023-04-13T04:00:14.409Z,3.50
2023-04-13T04:02:57.476Z,3.10
2023-04-13T04:05:32.105Z,3.30
2023-04-13T04:08:03.776Z,3.20
2023-04-13T04:10:33.474Z,3.30
2023-04-13T04:13:03.281Z,3.10
2023-04-13T04:15:38.424Z,3.30
2023-04-13T04:18:07.329Z,3.30
2023-04-13T04:20:38.347Z,3.40
2023-04-13T04:23:11.412Z,3.20
2023-04-13T04:26:03.121Z,3.40
2023-04-13T04:28:39.279Z,2.90
2023-04-13T04:31:12.341Z,3.20
2023-04-13T04:33:43.149Z,3.30
2023-04-13T04:36:14.440Z,3.00
2023-04-13T04:39:02.976Z,3.80
2023-04-13T04:41:37.981Z,2.70
2023-04-13T04:44:09.225Z,3.40
2023-04-13T04:46:41.956Z,2.90
2023-04-13T04:49:14.301Z,3.40
2023-04-13T04:51:42.551Z,3.30
2023-04-13T04:54:14.500Z,3.50
2023-04-13T04:56:43.190Z,3.20
2023-04-13T04:59:13.070Z,3.60
2023-04-13T05:01:52.649Z,3.60
2023-04-13T05:04:21.538Z,3.00
2023-04-13T05:06:50.220Z,3.20
2023-04-13T05:09:22.290Z,3.50
2023-04-13T05:11:53.539Z,3.10
2023-04-13T05:14:22.539Z,3.50
2023-04-13T05:16:52.241Z,2.70
2023-04-13T05:19:25.742Z,3.20
2023-04-13T05:22:01.290Z,3.30
2023-04-13T05:24:33.873Z,3.30
2023-04-13T05:27:03.779Z,2.90
2023-04-13T05:29:33.798Z,3.50
2023-04-13T05:32:02.822Z,2.90
2023-04-13T05:34:32.914Z,2.70
2023-04-13T05:37:12.256Z,3.20
2023-04-13T05:39:40.738Z,2.20
2023-04-13T05:42:09.313Z,3.10
2023-04-13T05:44:47.535Z,2.70
2023-04-13T05:47:18.723Z,2.90
2023-04-13T05:49:47.660Z,2.40
2023-04-13T05:52:17.120Z,3.00
2023-04-13T05:54:50.164Z,2.60
2023-04-13T05:58:36.353Z,2.30
2023-04-13T06:01:17.025Z,2.40
2023-04-13T06:03:46.877Z,2.70
2023-04-13T06:06:17.569Z,2.70
2023-04-13T06:08:46.465Z,2.80
2023-04-13T06:11:15.827Z,2.40
2023-04-13T06:13:46.711Z,3.20
2023-04-13T06:16:16.301Z,2.80
2023-04-13T06:18:44.585Z,2.10
2023-04-13T06:21:14.704Z,2.70
2023-04-13T06:23:43.935Z,2.60
2023-04-13T06:26:18.387Z,2.70
2023-04-13T06:28:52.642Z,2.50
2023-04-13T06:31:23.723Z,2.50
2023-04-13T06:33:52.470Z,3.00
2023-04-13T06:36:26.072Z,2.90
2023-04-13T06:38:55.783Z,2.60
2023-04-13T06:41:24.479Z,2.60
2023-04-13T06:43:53.062Z,2.40
2023-04-13T06:46:30.907Z,2.60
2023-04-13T06:49:03.464Z,2.80
2023-04-13T06:51:33.154Z,2.50
2023-04-13T06:54:05.612Z,2.90
2023-04-13T06:56:40.249Z,2.30
2023-04-13T06:59:09.651Z,2.90
2023-04-13T07:01:38.352Z,2.50
2023-04-13T07:04:08.844Z,2.60
2023-04-13T07:06:37.972Z,2.40
2023-04-13T07:09:06.242Z,2.40
2023-04-13T07:11:38.311Z,2.80
2023-04-13T07:14:08.943Z,2.50
2023-04-13T07:16:37.632Z,2.30
2023-04-13T07:19:06.214Z,2.30
2023-04-13T07:21:36.246Z,2.80
2023-04-13T07:24:06.767Z,2.50
2023-04-13T07:26:41.599Z,2.40
2023-04-13T07:29:13.902Z,2.70
2023-04-13T07:31:48.070Z,3.00
2023-04-13T07:34:19.158Z,3.10
2023-04-13T07:36:47.817Z,2.40
2023-04-13T07:39:20.044Z,2.40
2023-04-13T07:41:49.861Z,2.90
2023-04-13T07:44:26.647Z,2.30
2023-04-13T07:46:56.469Z,2.20
2023-04-13T07:49:25.970Z,2.60
2023-04-13T07:51:54.846Z,2.40
2023-04-13T07:54:23.639Z,2.80
2023-04-13T07:56:52.319Z,2.30
2023-04-13T07:59:23.510Z,2.60
2023-04-13T08:01:53.829Z,2.60
2023-04-13T08:04:23.080Z,2.20
2023-04-13T08:06:54.440Z,2.40
2023-04-13T08:09:23.541Z,2.40
2023-04-13T08:11:53.353Z,2.60
2023-04-13T08:14:26.034Z,3.00
2023-04-13T08:16:55.575Z,2.30
2023-04-13T08:19:24.442Z,2.50
2023-04-13T08:21:55.284Z,2.70
2023-04-13T08:24:24.416Z,2.50
2023-04-13T08:26:55.268Z,2.70
2023-04-13T08:29:25.617Z,2.70
2023-04-13T08:31:58.388Z,2.70
2023-04-13T08:34:27.625Z,2.60
2023-04-13T08:36:55.825Z,3.00
2023-04-13T08:39:27.586Z,2.50
2023-04-13T08:41:57.112Z,2.90
2023-04-13T08:44:27.621Z,2.80
2023-04-13T08:47:00.199Z,2.60
2023-04-13T08:49:32.721Z,2.60
2023-04-13T08:52:09.261Z,2.50
2023-04-13T08:54:46.146Z,2.40
2023-04-13T08:57:24.910Z,2.90
2023-04-13T08:59:53.418Z,2.70
2023-04-13T09:02:28.637Z,2.40
2023-04-13T09:05:04.305Z,2.60
2023-04-13T09:07:34.778Z,2.70
2023-04-13T09:10:10.587Z,2.90
2023-04-13T09:12:41.696Z,2.70
2023-04-13T09:15:11.129Z,3.30
2023-04-13T09:17:48.572Z,2.60
2023-04-13T09:20:27.314Z,2.50
2023-04-13T09:22:57.626Z,2.70
2023-04-13T09:25:29.884Z,2.90
2023-04-13T09:27:59.350Z,2.70
2023-04-13T09:30:28.034Z,2.70
2023-04-13T09:33:05.441Z,3.10
2023-04-13T09:35:34.521Z,2.90
2023-04-13T09:38:06.538Z,2.90
2023-04-13T09:40:38.527Z,2.70
2023-04-13T09:43:10.574Z,2.90
2023-04-13T09:45:44.544Z,2.70
2023-04-13T09:48:21.599Z,2.70
2023-04-13T09:51:06.872Z,2.70
2023-04-13T09:53:48.528Z,2.50
2023-04-13T09:56:17.419Z,3.20
2023-04-13T09:58:49.160Z,2.90
2023-04-13T10:01:19.323Z,2.70
2023-04-13T10:03:48.384Z,2.60
2023-04-13T10:06:16.817Z,2.60
2023-04-13T10:08:51.834Z,2.90
2023-04-13T10:11:20.509Z,3.30
2023-04-13T10:13:53.820Z,2.60
2023-04-13T10:16:59.048Z,2.60
2023-04-13T10:19:29.596Z,2.50
2023-04-13T10:21:58.970Z,2.60
2023-04-13T10:24:31.160Z,3.00
2023-04-13T10:27:10.566Z,2.40
2023-04-13T10:29:39.268Z,3.30
2023-04-13T10:32:07.795Z,2.60
2023-04-13T10:34:38.522Z,2.40
2023-04-13T10:37:16.571Z,3.20
2023-04-13T10:39:44.739Z,2.60
2023-04-13T10:42:15.385Z,2.50
2023-04-13T10:44:48.835Z,2.40
2023-04-13T10:47:20.753Z,2.90
2023-04-13T10:49:49.920Z,2.90
2023-04-13T10:52:18.432Z,2.90
2023-04-13T10:54:46.884Z,3.20
2023-04-13T10:57:17.025Z,2.60
2023-04-13T10:59:59.253Z,3.10
2023-04-13T11:02:34.523Z,3.00
2023-04-13T11:05:03.082Z,3.10
2023-04-13T11:07:33.907Z,2.90
2023-04-13T11:10:03.524Z,2.80
2023-04-13T11:12:33.255Z,3.00
2023-04-13T11:15:04.392Z,3.20
2023-04-13T11:17:34.210Z,3.10
2023-04-13T11:20:03.393Z,3.00
2023-04-13T11:22:36.797Z,2.70
2023-04-13T11:25:07.118Z,3.10
2023-04-13T11:27:36.001Z,3.20
2023-04-13T11:30:07.797Z,3.30
2023-04-13T11:32:45.378Z,3.10
2023-04-13T11:35:15.002Z,3.50
2023-04-13T11:37:52.777Z,3.50
2023-04-13T11:40:23.119Z,2.90
2023-04-13T11:42:55.722Z,3.90
2023-04-13T11:45:29.061Z,3.50
2023-04-13T11:47:57.577Z,3.20
2023-04-13T11:50:26.957Z,3.30
2023-04-13T11:52:58.701Z,3.80
2023-04-13T11:57:55.672Z,3.70
2023-04-13T12:00:27.114Z,4.10
2023-04-13T12:05:31.651Z,3.50
2023-04-13T12:08:09.986Z,4.10
2023-04-13T12:10:49.404Z,4.10
2023-04-13T12:13:47.163Z,3.10
2023-04-13T12:19:10.004Z,3.70
2023-04-13T12:21:40.138Z,3.90
2023-04-13T12:24:11.779Z,3.30
2023-04-13T12:27:17.169Z,3.50
2023-04-13T12:29:30.295Z,3.60
2023-04-13T12:32:04.098Z,3.70
2023-04-13T12:34:32.544Z,3.20
2023-04-13T12:37:01.269Z,3.40
2023-04-13T12:39:29.864Z,3.50
2023-04-13T12:41:58.131Z,3.90
2023-04-13T12:44:27.942Z,3.40
2023-04-13T12:46:57.310Z,3.70
2023-04-13T12:49:26.036Z,3.90
2023-04-13T12:51:55.741Z,3.70
2023-04-13T12:54:24.130Z,3.80
2023-04-13T12:56:52.532Z,3.40
2023-04-13T12:59:24.412Z,4.10
2023-04-13T13:01:52.977Z,3.80
2023-04-13T13:04:22.484Z,3.70
2023-04-13T13:06:52.740Z,4.00
2023-04-13T13:09:21.154Z,3.40
2023-04-13T13:11:53.363Z,3.50
2023-04-13T13:14:22.319Z,3.30
2023-04-13T13:16:50.742Z,3.30
2023-04-13T13:19:20.201Z,3.20
2023-04-13T13:21:48.998Z,2.80
2023-04-13T13:24:17.269Z,3.90
2023-04-13T13:27:12.089Z,3.50
2023-04-13T13:29:37.390Z,3.10
2023-04-13T13:32:06.742Z,3.10
2023-04-13T13:34:35.256Z,3.30
2023-04-13T13:37:03.738Z,3.20
2023-04-13T13:39:35.782Z,3.10
2023-04-13T13:42:05.013Z,3.30
2023-04-13T13:44:36.406Z,3.70
2023-04-13T13:47:05.449Z,2.80
2023-04-13T13:49:34.342Z,3.70
2023-04-13T13:52:17.365Z,3.40
2023-04-13T13:54:50.349Z,3.50
2023-04-13T13:57:18.735Z,3.60
2023-04-13T13:59:49.411Z,4.30
2023-04-13T14:02:18.113Z,3.60
2023-04-13T14:04:46.948Z,3.50
2023-04-13T14:07:15.644Z,3.30
2023-04-13T14:09:45.652Z,3.40
2023-04-13T14:12:13.917Z,3.20
2023-04-13T14:14:42.500Z,3.30
2023-04-13T14:17:10.778Z,3.50
2023-04-13T14:19:40.183Z,3.00
2023-04-13T14:22:08.621Z,3.00
2023-04-13T14:24:38.401Z,3.60
2023-04-13T14:27:08.082Z,3.60
2023-04-13T14:29:36.468Z,3.70
2023-04-13T14:32:08.735Z,3.30
2023-04-13T14:34:37.735Z,3.00
2023-04-13T14:37:06.721Z,3.60
2023-04-13T14:39:36.939Z,3.30
2023-04-13T14:42:07.984Z,3.10
2023-04-13T14:44:36.494Z,3.50
2023-04-13T14:47:11.879Z,3.10
2023-04-13T14:49:40.913Z,3.50
2023-04-13T14:52:09.204Z,3.20
2023-04-13T14:54:39.402Z,4.10
2023-04-13T14:57:07.783Z,3.40
2023-04-13T14:59:36.469Z,3.70
2023-04-13T15:02:06.982Z,3.80
2023-04-13T15:04:37.546Z,3.50
2023-04-13T15:07:05.815Z,3.30
2023-04-13T15:09:33.982Z,3.00
2023-04-13T15:12:04.510Z,3.20
2023-04-13T15:14:37.085Z,4.00
2023-04-13T15:17:07.211Z,3.60
2023-04-13T15:19:35.574Z,3.10
2023-04-13T15:22:04.169Z,3.10
2023-04-13T15:24:32.642Z,3.60
2023-04-13T15:27:01.172Z,4.20
2023-04-13T15:29:29.708Z,3.40
2023-04-13T15:31:58.561Z,4.20
2023-04-13T15:34:28.209Z,4.00
2023-04-13T15:36:57.303Z,3.90
2023-04-13T15:39:26.810Z,4.20
2023-04-13T15:42:00.536Z,3.80
2023-04-13T15:44:29.097Z,3.40
2023-04-13T15:46:57.686Z,3.50
2023-04-13T15:49:26.172Z,4.30
2023-04-13T15:51:54.439Z,4.00
2023-04-13T15:54:22.818Z,3.80
2023-04-13T15:56:51.821Z,3.70
2023-04-13T15:59:21.735Z,3.60
2023-04-13T16:01:50.781Z,3.90
2023-04-13T16:04:19.267Z,3.80
2023-04-13T16:06:55.780Z,3.90
2023-04-13T16:09:35.332Z,4.00
2023-04-13T16:12:07.924Z,3.70
2023-04-13T16:14:39.047Z,4.00
2023-04-13T16:19:41.988Z,3.90
2023-04-13T16:22:10.732Z,3.50
2023-04-13T16:24:42.794Z,3.40
2023-04-13T16:27:12.839Z,3.80
2023-04-13T16:29:45.486Z,3.80
2023-04-13T16:32:13.768Z,3.90
2023-04-13T16:34:43.077Z,3.40
2023-04-13T16:37:12.842Z,3.50
2023-04-13T16:39:45.836Z,3.80
2023-04-13T16:42:14.144Z,3.80
2023-04-13T16:44:42.934Z,3.50
2023-04-13T16:47:20.145Z,3.60
2023-04-13T16:49:48.319Z,3.10
2023-04-13T16:52:16.565Z,3.20
2023-04-13T16:54:46.490Z,3.30
2023-04-13T16:57:14.707Z,4.60
2023-04-13T16:59:43.047Z,3.40
2023-04-13T17:02:28.120Z,3.30
2023-04-13T17:04:59.668Z,3.20
2023-04-13T17:07:29.987Z,3.50
2023-04-13T17:10:18.746Z,3.40
2023-04-13T17:12:48.463Z,3.50
2023-04-13T17:15:21.545Z,3.10
2023-04-13T17:17:55.279Z,2.90
2023-04-13T17:20:23.627Z,3.10
2023-04-13T17:22:52.420Z,3.30
2023-04-13T17:25:24.288Z,4.20
2023-04-13T17:27:53.586Z,3.40
2023-04-13T17:30:24.941Z,3.30
2023-04-13T17:32:58.811Z,3.20
2023-04-13T17:35:27.872Z,3.10
2023-04-13T17:37:56.464Z,3.30
2023-04-13T17:40:32.217Z,3.40
2023-04-13T17:43:00.589Z,3.40
2023-04-13T17:45:31.459Z,2.90
2023-04-13T17:48:05.269Z,3.20
2023-04-13T17:50:34.559Z,3.70
2023-04-13T17:53:04.498Z,3.50
2023-04-13T17:55:37.560Z,3.70
2023-04-13T17:58:06.136Z,3.50
2023-04-13T18:00:34.707Z,3.10
2023-04-13T18:03:05.788Z,3.30
2023-04-13T18:05:35.484Z,3.70
2023-04-13T18:08:03.840Z,3.60
2023-04-13T18:10:33.771Z,3.30
2023-04-13T18:13:08.045Z,3.20
2023-04-13T18:17:31.012Z,3.30
2023-04-13T18:20:09.283Z,3.80
2023-04-13T18:22:39.376Z,4.20
2023-04-13T18:25:09.878Z,2.90
2023-04-13T18:27:38.279Z,3.30
2023-04-13T18:30:09.256Z,3.30
2023-04-13T18:32:38.333Z,3.40
2023-04-13T18:35:07.317Z,3.00
2023-04-13T18:37:41.573Z,3.10
2023-04-13T18:40:11.134Z,3.40
2023-04-13T18:42:40.850Z,3.50
2023-04-13T18:45:11.686Z,3.30
2023-04-13T18:47:42.541Z,3.70
2023-04-13T18:50:11.817Z,3.20
2023-04-13T18:52:40.722Z,2.80
2023-04-13T18:55:09.924Z,2.90
2023-04-13T18:57:42.295Z,3.50
2023-04-13T19:00:11.744Z,3.30
2023-04-13T19:02:42.485Z,3.20
2023-04-13T19:05:12.909Z,3.40
2023-04-13T19:07:45.231Z,3.30
2023-04-13T19:10:14.019Z,3.90
2023-04-13T19:12:43.205Z,3.70
2023-04-13T19:15:16.910Z,2.60
2023-04-13T19:17:47.489Z,3.40
2023-04-13T19:20:16.022Z,3.30
2023-04-13T19:22:44.401Z,3.50
2023-04-13T19:25:18.320Z,3.30
2023-04-13T19:27:48.636Z,3.30
2023-04-13T19:30:17.524Z,3.40
2023-04-13T19:32:59.463Z,3.30
2023-04-13T19:35:28.777Z,3.00
2023-04-13T19:37:57.613Z,3.50
2023-04-13T19:40:33.468Z,2.60
2023-04-13T19:43:02.060Z,3.60
2023-04-13T19:45:31.117Z,3.20
2023-04-13T19:47:59.760Z,3.80
2023-04-13T19:50:29.754Z,3.30
2023-04-13T19:52:58.434Z,3.50
2023-04-13T19:55:28.555Z,3.30
2023-04-13T19:57:56.833Z,3.30
2023-04-13T20:00:29.653Z,2.90
2023-04-13T20:03:03.756Z,2.80
2023-04-13T20:05:32.932Z,3.60
2023-04-13T20:08:01.209Z,3.00
2023-04-13T20:10:29.596Z,3.00
2023-04-13T20:13:00.017Z,3.60
2023-04-13T20:15:33.220Z,3.30
2023-04-13T20:18:07.527Z,2.90
2023-04-13T20:20:36.709Z,2.90
2023-04-13T20:23:05.135Z,3.20
2023-04-13T20:25:33.898Z,2.90
2023-04-13T20:28:04.516Z,3.40
2023-04-13T20:30:33.005Z,3.10
2023-04-13T20:33:07.404Z,2.90
2023-04-13T20:35:35.863Z,3.10
2023-04-13T20:38:05.648Z,2.80
2023-04-13T20:40:37.865Z,2.90
2023-04-13T20:43:06.568Z,3.10
2023-04-13T20:45:38.573Z,2.90
2023-04-13T20:50:39.486Z,3.50
2023-04-13T20:53:13.602Z,3.10
2023-04-13T20:55:42.794Z,2.90
2023-04-13T21:00:47.158Z,2.60
2023-04-13T21:03:18.627Z,3.00
2023-04-13T21:05:47.111Z,3.40
2023-04-13T21:08:16.867Z,2.80
2023-04-13T21:10:49.984Z,2.60
2023-04-13T21:13:18.866Z,3.30
2023-04-13T21:15:47.311Z,3.00
2023-04-13T21:18:18.772Z,4.00
2023-04-13T21:20:50.286Z,2.70
2023-04-13T21:23:18.531Z,3.20
2023-04-13T21:25:49.677Z,2.70
2023-04-13T21:28:21.144Z,3.10
2023-04-13T21:30:49.632Z,2.50
2023-04-13T21:33:24.227Z,2.50
2023-04-13T21:35:52.534Z,2.90
2023-04-13T21:38:21.025Z,2.40
2023-04-13T21:40:49.707Z,2.80
2023-04-13T21:43:18.632Z,3.10
2023-04-13T21:45:47.239Z,2.80
2023-04-13T21:48:22.538Z,2.40
2023-04-13T21:50:53.683Z,2.70
2023-04-13T21:53:22.683Z,2.80
2023-04-13T21:55:51.861Z,3.10
2023-04-13T21:58:24.336Z,2.70
2023-04-13T22:00:52.431Z,2.50
2023-04-13T22:03:21.420Z,2.50
2023-04-13T22:05:49.683Z,2.30
2023-04-13T22:08:19.682Z,3.30
2023-04-13T22:10:49.050Z,2.60
2023-04-13T22:13:17.531Z,1.90
2023-04-13T22:15:47.256Z,3.10
2023-04-13T22:18:18.027Z,2.70
2023-04-13T22:20:46.301Z,2.60
2023-04-13T22:23:15.665Z,2.00
2023-04-13T22:25:51.524Z,2.40
2023-04-13T22:28:20.014Z,2.00
2023-04-13T22:30:53.836Z,2.30
2023-04-13T22:33:23.199Z,2.50
2023-04-13T22:35:52.040Z,2.40
2023-04-13T22:38:22.649Z,2.40
2023-04-13T22:40:51.478Z,2.20
2023-04-13T22:43:19.825Z,2.20
2023-04-13T22:46:00.781Z,2.30
2023-04-13T22:48:30.105Z,1.90
2023-04-13T22:51:00.809Z,2.30
2023-04-13T22:53:31.670Z,2.20
2023-04-13T22:56:01.026Z,2.60
2023-04-13T22:58:29.981Z,2.10
2023-04-13T23:00:59.535Z,2.20
2023-04-13T23:03:28.690Z,2.20
2023-04-13T23:05:58.473Z,2.10
2023-04-13T23:11:11.513Z,2.20
2023-04-13T23:13:41.975Z,2.00
2023-04-13T23:16:14.602Z,1.90
2023-04-13T23:18:45.698Z,2.50
2023-04-13T23:21:14.284Z,2.70
2023-04-13T23:23:43.276Z,2.50
2023-04-13T23:26:12.774Z,2.40
2023-04-13T23:28:41.270Z,2.40
2023-04-13T23:31:13.781Z,2.40
2023-04-13T23:33:43.033Z,2.10
2023-04-13T23:36:11.945Z,2.60
2023-04-13T23:38:43.942Z,2.80
2023-04-13T23:41:13.067Z,2.10
2023-04-13T23:43:41.338Z,2.50
2023-04-13T23:46:10.396Z,2.50
2023-04-13T23:48:40.279Z,2.90
2023-04-13T23:51:10.356Z,2.40
2023-04-13T23:53:39.028Z,2.60
2023-04-13T23:56:07.742Z,2.50
2023-04-13T23:58:36.090Z,2.60
